createdAt,value
2019-02-16T00:00:34.254Z,102260.34
2019-02-16T00:01:36.480Z,102258.11
2019-02-16T00:02:38.709Z,102262.02
2019-02-16T00:03:40.915Z,102259.23
2019-02-16T00:04:43.225Z,102260.16
2019-02-16T00:05:45.568Z,102256.99
2019-02-16T00:06:47.779Z,102257.17
2019-02-16T00:07:52.337Z,102257.17
2019-02-16T00:08:54.591Z,102255.88
2019-02-16T00:09:56.756Z,102257.17
2019-02-16T00:10:58.985Z,102251.60
2019-02-16T00:12:01.194Z,102251.97
2019-02-16T00:13:03.426Z,102247.88
2019-02-16T00:14:05.645Z,102249.00
2019-02-16T00:15:07.853Z,102246.39
2019-02-16T00:16:10.072Z,102241.93
2019-02-16T00:17:12.518Z,102242.86
2019-02-16T00:18:14.806Z,102239.33
2019-02-16T00:19:17.016Z,102241.93
2019-02-16T00:20:19.240Z,102237.09
2019-02-16T00:21:21.444Z,102242.30
2019-02-16T00:22:23.641Z,102245.84
2019-02-16T00:23:25.875Z,102244.53
2019-02-16T00:24:28.084Z,102241.19
2019-02-16T00:25:30.289Z,102238.58
2019-02-16T00:26:32.489Z,102238.20
2019-02-16T00:27:36.674Z,102242.12
2019-02-16T00:28:38.595Z,102236.73
2019-02-16T00:29:40.839Z,102229.84
2019-02-16T00:30:43.170Z,102231.14
2019-02-16T00:31:47.441Z,102231.14
2019-02-16T00:32:49.913Z,102229.29
2019-02-16T00:33:52.139Z,102233.75
2019-02-16T00:34:54.380Z,102226.31
2019-02-16T00:35:56.573Z,102230.22
2019-02-16T00:36:58.785Z,102225.01
2019-02-16T00:38:00.992Z,102221.84
2019-02-16T00:39:03.497Z,102230.22
2019-02-16T00:40:05.641Z,102230.03
2019-02-16T00:41:10.899Z,102227.23
2019-02-16T00:42:13.116Z,102222.78
2019-02-16T00:43:16.682Z,102222.41
2019-02-16T00:44:18.917Z,102222.41
2019-02-16T00:45:21.121Z,102224.64
2019-02-16T00:46:23.325Z,102226.50
2019-02-16T00:47:25.838Z,102221.66
2019-02-16T00:48:29.753Z,102221.48
2019-02-16T00:49:31.980Z,102218.50
2019-02-16T00:50:34.233Z,102217.20
2019-02-16T00:51:36.496Z,102214.59
2019-02-16T00:52:38.750Z,102212.17
2019-02-16T00:53:41.027Z,102211.25
2019-02-16T00:54:43.203Z,102210.50
2019-02-16T00:55:45.663Z,102210.13
2019-02-16T00:56:48.058Z,102209.58
2019-02-16T00:57:50.266Z,102208.27
2019-02-16T00:58:52.485Z,102201.20
2019-02-16T00:59:54.712Z,102205.11
2019-02-16T01:00:56.915Z,102206.59
2019-02-16T01:02:03.131Z,102203.44
2019-02-16T01:03:05.417Z,102209.02
2019-02-16T01:04:07.626Z,102210.88
2019-02-16T01:05:09.889Z,102208.83
2019-02-16T01:06:13.831Z,102208.64
2019-02-16T01:07:16.014Z,102203.44
2019-02-16T01:08:18.211Z,102202.69
2019-02-16T01:09:20.690Z,102205.30
2019-02-16T01:10:22.911Z,102203.63
2019-02-16T01:11:25.155Z,102205.67
2019-02-16T01:12:27.341Z,102193.95
2019-02-16T01:13:29.667Z,102193.58
2019-02-16T01:14:32.841Z,102197.48
2019-02-16T01:15:35.044Z,102188.19
2019-02-16T01:16:37.257Z,102186.14
2019-02-16T01:17:39.466Z,102188.38
2019-02-16T01:18:41.592Z,102184.84
2019-02-16T01:19:44.568Z,102189.67
2019-02-16T01:20:46.770Z,102184.28
2019-02-16T01:21:48.986Z,102183.91
2019-02-16T01:22:51.195Z,102185.03
2019-02-16T01:23:53.428Z,102183.72
2019-02-16T01:24:55.658Z,102184.09
2019-02-16T01:25:58.157Z,102182.98
2019-02-16T01:27:00.379Z,102177.22
2019-02-16T01:28:02.587Z,102182.23
2019-02-16T01:29:04.850Z,102181.86
2019-02-16T01:30:07.080Z,102174.42
2019-02-16T01:31:09.326Z,102177.41
2019-02-16T01:32:14.754Z,102177.78
2019-02-16T01:33:16.997Z,102176.11
2019-02-16T01:34:19.392Z,102172.02
2019-02-16T01:35:21.618Z,102179.08
2019-02-16T01:36:23.861Z,102177.96
2019-02-16T01:37:26.109Z,102170.52
2019-02-16T01:38:31.045Z,102173.50
2019-02-16T01:39:33.316Z,102170.89
2019-02-16T01:40:35.543Z,102169.59
2019-02-16T01:41:37.783Z,102170.89
2019-02-16T01:42:40.016Z,102158.63
2019-02-16T01:43:42.378Z,102160.48
2019-02-16T01:44:44.751Z,102150.81
2019-02-16T01:45:46.999Z,102159.92
2019-02-16T01:46:49.236Z,102154.34
2019-02-16T01:47:51.528Z,102153.42
2019-02-16T01:48:53.775Z,102153.05
2019-02-16T01:49:56.007Z,102145.23
2019-02-16T01:50:58.214Z,102146.91
2019-02-16T01:52:00.433Z,102147.28
2019-02-16T01:53:02.681Z,102145.98
2019-02-16T01:54:12.099Z,102141.15
2019-02-16T01:55:14.359Z,102135.20
2019-02-16T01:56:16.594Z,102137.61
2019-02-16T01:57:18.863Z,102128.69
2019-02-16T01:58:21.096Z,102127.57
2019-02-16T01:59:23.366Z,102123.66
2019-02-16T02:00:26.792Z,102124.41
2019-02-16T02:01:29.021Z,102130.55
2019-02-16T02:02:31.253Z,102124.41
2019-02-16T02:03:36.394Z,102120.50
2019-02-16T02:04:38.690Z,102120.88
2019-02-16T02:05:40.928Z,102118.83
2019-02-16T02:06:43.177Z,102118.83
2019-02-16T02:07:45.437Z,102109.53
2019-02-16T02:08:52.254Z,102109.16
2019-02-16T02:09:54.531Z,102112.70
2019-02-16T02:10:56.789Z,102111.39
2019-02-16T02:11:59.026Z,102108.42
2019-02-16T02:13:01.295Z,102106.94
2019-02-16T02:14:03.478Z,102098.00
2019-02-16T02:15:05.959Z,102107.12
2019-02-16T02:16:08.194Z,102104.52
2019-02-16T02:17:10.428Z,102106.74
2019-02-16T02:18:12.913Z,102103.77
2019-02-16T02:19:15.153Z,102100.61
2019-02-16T02:20:17.414Z,102104.52
2019-02-16T02:21:19.645Z,102106.74
2019-02-16T02:22:21.917Z,102107.30
2019-02-16T02:23:24.192Z,102104.14
2019-02-16T02:24:26.456Z,102103.21
2019-02-16T02:25:28.707Z,102099.30
2019-02-16T02:26:30.969Z,102097.26
2019-02-16T02:27:33.221Z,102095.95
2019-02-16T02:28:35.472Z,102087.59
2019-02-16T02:29:37.823Z,102091.88
2019-02-16T02:30:40.079Z,102087.22
2019-02-16T02:31:43.881Z,102083.69
2019-02-16T02:32:46.102Z,102081.83
2019-02-16T02:33:48.353Z,102080.71
2019-02-16T02:34:50.591Z,102084.61
2019-02-16T02:35:54.403Z,102083.31
2019-02-16T02:36:56.710Z,102071.23
2019-02-16T02:37:58.876Z,102074.20
2019-02-16T02:39:01.111Z,102073.27
2019-02-16T02:40:03.340Z,102072.34
2019-02-16T02:41:05.588Z,102061.19
2019-02-16T02:42:07.825Z,102064.16
2019-02-16T02:43:10.067Z,102068.06
2019-02-16T02:44:12.284Z,102069.00
2019-02-16T02:45:15.804Z,102067.69
2019-02-16T02:46:17.984Z,102062.11
2019-02-16T02:47:20.258Z,102061.73
2019-02-16T02:48:22.485Z,102057.66
2019-02-16T02:49:24.722Z,102061.56
2019-02-16T02:50:26.948Z,102057.28
2019-02-16T02:51:29.221Z,102061.56
2019-02-16T02:52:31.581Z,102064.16
2019-02-16T02:53:33.875Z,102061.00
2019-02-16T02:54:38.655Z,102060.26
2019-02-16T02:55:40.920Z,102056.91
2019-02-16T02:56:43.181Z,102058.20
2019-02-16T02:57:45.413Z,102059.33
2019-02-16T02:58:47.772Z,102051.52
2019-02-16T02:59:50.166Z,102057.09
2019-02-16T03:00:52.401Z,102054.13
2019-02-16T03:01:57.267Z,102052.82
2019-02-16T03:02:59.708Z,102057.09
2019-02-16T03:04:02.949Z,102055.80
2019-02-16T03:05:06.517Z,102054.50
2019-02-16T03:06:08.729Z,102053.38
2019-02-16T03:07:10.964Z,102054.67
2019-02-16T03:08:13.189Z,102050.02
2019-02-16T03:09:15.425Z,102053.00
2019-02-16T03:10:17.656Z,102053.00
2019-02-16T03:11:19.902Z,102055.05
2019-02-16T03:12:22.152Z,102053.75
2019-02-16T03:13:24.500Z,102051.52
2019-02-16T03:14:26.739Z,102047.62
2019-02-16T03:15:29.073Z,102041.11
2019-02-16T03:16:31.324Z,102042.03
2019-02-16T03:17:33.571Z,102034.22
2019-02-16T03:18:35.821Z,102035.53
2019-02-16T03:19:38.068Z,102031.25
2019-02-16T03:20:40.297Z,102039.44
2019-02-16T03:21:42.520Z,102032.55
2019-02-16T03:22:44.799Z,102029.95
2019-02-16T03:23:47.097Z,102032.00
2019-02-16T03:24:49.262Z,102032.55
2019-02-16T03:25:54.662Z,102032.55
2019-02-16T03:26:57.051Z,102032.17
2019-02-16T03:27:59.503Z,102028.27
2019-02-16T03:29:01.783Z,102029.57
2019-02-16T03:30:04.033Z,102025.11
2019-02-16T03:31:06.266Z,102026.41
2019-02-16T03:32:08.518Z,102024.73
2019-02-16T03:33:10.782Z,102024.37
2019-02-16T03:34:13.054Z,102021.39
2019-02-16T03:35:15.298Z,102023.81
2019-02-16T03:36:17.516Z,102026.79
2019-02-16T03:37:19.795Z,102019.91
2019-02-16T03:38:22.038Z,102018.61
2019-02-16T03:39:24.274Z,102013.95
2019-02-16T03:40:26.514Z,102013.40
2019-02-16T03:41:28.747Z,102016.55
2019-02-16T03:42:31.001Z,102016.37
2019-02-16T03:43:33.233Z,102018.23
2019-02-16T03:44:35.464Z,102020.84
2019-02-16T03:45:37.719Z,102015.63
2019-02-16T03:46:39.948Z,102012.09
2019-02-16T03:47:42.223Z,102015.08
2019-02-16T03:48:45.519Z,102019.16
2019-02-16T03:49:47.766Z,102010.05
2019-02-16T03:50:49.988Z,102007.81
2019-02-16T03:51:52.220Z,102005.77
2019-02-16T03:52:54.480Z,102008.00
2019-02-16T03:53:56.803Z,102003.54
2019-02-16T03:55:01.356Z,102002.06
2019-02-16T03:56:03.564Z,102004.29
2019-02-16T03:57:05.800Z,102002.43
2019-02-16T03:58:08.041Z,102002.43
2019-02-16T03:59:10.283Z,102001.13
2019-02-16T04:00:12.514Z,101995.38
2019-02-16T04:01:14.766Z,102002.43
2019-02-16T04:02:16.995Z,102008.56
2019-02-16T04:03:19.267Z,102008.19
2019-02-16T04:04:21.538Z,102008.94
2019-02-16T04:05:23.747Z,102007.09
2019-02-16T04:06:26.073Z,102011.17
2019-02-16T04:07:28.320Z,102009.87
2019-02-16T04:08:30.585Z,102009.50
2019-02-16T04:09:32.816Z,102006.34
2019-02-16T04:10:35.044Z,102008.75
2019-02-16T04:11:37.280Z,102008.19
2019-02-16T04:12:39.524Z,102002.98
2019-02-16T04:13:41.775Z,102003.36
2019-02-16T04:14:44.006Z,101993.70
2019-02-16T04:15:46.572Z,102001.13
2019-02-16T04:16:48.893Z,101998.91
2019-02-16T04:17:51.095Z,101997.98
2019-02-16T04:18:53.360Z,101995.75
2019-02-16T04:19:55.558Z,101995.00
2019-02-16T04:20:57.812Z,101993.14
2019-02-16T04:22:00.014Z,101985.33
2019-02-16T04:23:02.292Z,101987.19
2019-02-16T04:24:04.583Z,101984.41
2019-02-16T04:25:06.900Z,101983.66
2019-02-16T04:26:10.264Z,101992.95
2019-02-16T04:27:12.457Z,101988.49
2019-02-16T04:28:14.789Z,101985.33
2019-02-16T04:29:17.019Z,101987.56
2019-02-16T04:30:19.256Z,101984.21
2019-02-16T04:31:21.454Z,101977.33
2019-02-16T04:32:23.735Z,101973.62
2019-02-16T04:33:26.038Z,101973.62
2019-02-16T04:34:28.274Z,101974.37
2019-02-16T04:35:30.545Z,101966.56
2019-02-16T04:36:32.793Z,101967.48
2019-02-16T04:37:34.959Z,101963.77
2019-02-16T04:38:38.324Z,101963.95
2019-02-16T04:39:40.488Z,101967.11
2019-02-16T04:40:42.683Z,101962.28
2019-02-16T04:41:44.909Z,101966.73
2019-02-16T04:42:47.143Z,101965.81
2019-02-16T04:43:49.342Z,101968.41
2019-02-16T04:44:51.583Z,101966.73
2019-02-16T04:45:53.881Z,101968.79
2019-02-16T04:46:56.089Z,101968.04
2019-02-16T04:47:58.251Z,101968.79
2019-02-16T04:49:00.468Z,101972.69
2019-02-16T04:50:02.700Z,101975.67
2019-02-16T04:51:04.908Z,101970.47
2019-02-16T04:52:07.193Z,101966.19
2019-02-16T04:53:09.328Z,101969.34
2019-02-16T04:54:11.635Z,101971.95
2019-02-16T04:55:13.874Z,101971.02
2019-02-16T04:56:16.068Z,101965.81
2019-02-16T04:57:18.266Z,101976.22
2019-02-16T04:58:20.471Z,101975.67
2019-02-16T04:59:22.672Z,101977.15
2019-02-16T05:00:24.933Z,101974.55
2019-02-16T05:01:29.117Z,101966.36
2019-02-16T05:02:31.037Z,101972.87
2019-02-16T05:03:33.637Z,101975.84
2019-02-16T05:04:35.852Z,101965.44
2019-02-16T05:05:38.076Z,101969.34
2019-02-16T05:06:40.299Z,101966.73
2019-02-16T05:07:43.202Z,101964.88
2019-02-16T05:08:45.524Z,101965.44
2019-02-16T05:09:47.734Z,101968.59
2019-02-16T05:10:49.966Z,101961.16
2019-02-16T05:11:54.996Z,101962.46
2019-02-16T05:12:57.116Z,101963.39
2019-02-16T05:13:59.444Z,101955.95
2019-02-16T05:15:01.655Z,101955.58
2019-02-16T05:16:03.891Z,101952.97
2019-02-16T05:17:06.094Z,101954.83
2019-02-16T05:18:08.294Z,101949.99
2019-02-16T05:19:10.509Z,101951.67
2019-02-16T05:20:12.771Z,101953.90
2019-02-16T05:21:14.959Z,101947.77
2019-02-16T05:22:17.163Z,101948.52
2019-02-16T05:23:19.375Z,101947.77
2019-02-16T05:24:21.598Z,101948.70
2019-02-16T05:25:23.858Z,101949.06
2019-02-16T05:26:26.295Z,101945.91
2019-02-16T05:27:28.521Z,101946.29
2019-02-16T05:28:30.848Z,101947.39
2019-02-16T05:29:33.068Z,101953.53
2019-02-16T05:30:35.291Z,101949.06
2019-02-16T05:31:37.424Z,101952.59
2019-02-16T05:32:39.866Z,101952.59
2019-02-16T05:33:42.042Z,101945.72
2019-02-16T05:34:46.403Z,101942.73
2019-02-16T05:35:48.652Z,101940.14
2019-02-16T05:36:50.850Z,101942.73
2019-02-16T05:37:53.056Z,101940.88
2019-02-16T05:38:55.265Z,101943.11
2019-02-16T05:39:57.492Z,101949.25
2019-02-16T05:40:59.727Z,101949.42
2019-02-16T05:42:01.961Z,101946.82
2019-02-16T05:43:04.145Z,101951.47
2019-02-16T05:44:06.345Z,101948.87
2019-02-16T05:45:10.629Z,101947.02
2019-02-16T05:46:12.888Z,101948.32
2019-02-16T05:47:15.086Z,101947.02
2019-02-16T05:48:17.299Z,101943.29
2019-02-16T05:49:19.508Z,101941.81
2019-02-16T05:50:21.991Z,101939.21
2019-02-16T05:51:24.226Z,101932.70
2019-02-16T05:52:26.448Z,101937.53
2019-02-16T05:53:28.663Z,101933.62
2019-02-16T05:54:30.884Z,101937.53
2019-02-16T05:55:33.083Z,101939.77
2019-02-16T05:56:35.330Z,101937.16
2019-02-16T05:57:37.535Z,101940.88
2019-02-16T05:58:39.879Z,101940.14
2019-02-16T05:59:42.089Z,101941.81
2019-02-16T06:00:44.325Z,101942.19
2019-02-16T06:01:53.773Z,101935.13
2019-02-16T06:02:52.961Z,101939.41
2019-02-16T06:03:55.213Z,101934.38
2019-02-16T06:04:57.402Z,101937.36
2019-02-16T06:05:59.572Z,101928.99
2019-02-16T06:07:01.798Z,101928.62
2019-02-16T06:08:03.945Z,101924.71
2019-02-16T06:09:06.156Z,101927.69
2019-02-16T06:10:08.749Z,101927.31
2019-02-16T06:11:10.977Z,101924.16
2019-02-16T06:12:14.214Z,101928.99
2019-02-16T06:13:16.414Z,101929.37
2019-02-16T06:14:18.632Z,101927.89
2019-02-16T06:15:20.825Z,101928.81
2019-02-16T06:16:23.028Z,101929.19
2019-02-16T06:17:25.258Z,101920.28
2019-02-16T06:18:27.476Z,101918.23
2019-02-16T06:19:29.832Z,101917.67
2019-02-16T06:20:32.034Z,101914.52
2019-02-16T06:21:34.237Z,101914.14
2019-02-16T06:22:36.461Z,101906.71
2019-02-16T06:23:38.679Z,101909.13
2019-02-16T06:24:41.037Z,101909.51
2019-02-16T06:25:43.258Z,101908.77
2019-02-16T06:26:45.459Z,101908.20
2019-02-16T06:27:47.807Z,101908.20
2019-02-16T06:28:50.069Z,101909.67
2019-02-16T06:29:52.307Z,101907.99
2019-02-16T06:30:54.557Z,101908.74
2019-02-16T06:31:56.798Z,101897.78
2019-02-16T06:32:59.360Z,101902.61
2019-02-16T06:34:01.575Z,101894.25
2019-02-16T06:35:21.374Z,101899.09
2019-02-16T06:36:39.256Z,101900.02
2019-02-16T06:37:41.459Z,101896.30
2019-02-16T06:38:43.703Z,101902.06
2019-02-16T06:39:45.917Z,101908.02
2019-02-16T06:40:48.210Z,101913.22
2019-02-16T06:41:50.451Z,101912.30
2019-02-16T06:42:52.647Z,101910.62
2019-02-16T06:43:56.173Z,101908.39
2019-02-16T06:45:00.524Z,101913.05
2019-02-16T06:46:02.760Z,101913.42
2019-02-16T06:47:07.699Z,101911.56
2019-02-16T06:48:10.003Z,101913.80
2019-02-16T06:49:12.427Z,101912.86
2019-02-16T06:50:17.116Z,101915.47
2019-02-16T06:51:21.782Z,101917.14
2019-02-16T06:52:23.983Z,101916.59
2019-02-16T06:53:26.195Z,101922.72
2019-02-16T06:54:28.417Z,101918.64
2019-02-16T06:55:41.108Z,101917.71
2019-02-16T06:57:11.344Z,101919.56
2019-02-16T06:58:12.961Z,101911.58
2019-02-16T06:59:15.227Z,101913.81
2019-02-16T07:00:19.963Z,101915.11
2019-02-16T07:01:22.165Z,101915.48
2019-02-16T07:02:26.861Z,101913.25
2019-02-16T07:03:29.071Z,101911.41
2019-02-16T07:04:31.279Z,101914.56
2019-02-16T07:05:33.501Z,101919.92
2019-02-16T07:06:38.624Z,101919.55
2019-02-16T07:07:40.779Z,101916.95
2019-02-16T07:08:45.812Z,101910.44
2019-02-16T07:09:48.387Z,101910.81
2019-02-16T07:10:50.644Z,101912.11
2019-02-16T07:11:52.840Z,101905.98
2019-02-16T07:12:57.525Z,101909.33
2019-02-16T07:13:59.728Z,101911.19
2019-02-16T07:15:01.954Z,101913.80
2019-02-16T07:17:52.042Z,101913.23
2019-02-16T07:19:01.783Z,101921.80
2019-02-16T07:20:03.985Z,101931.83
2019-02-16T07:21:06.192Z,101928.84
2019-02-16T07:22:08.433Z,101926.62
2019-02-16T07:23:10.683Z,101931.27
2019-02-16T07:24:12.906Z,101938.16
2019-02-16T07:25:15.120Z,101937.03
2019-02-16T07:26:17.319Z,101935.17
2019-02-16T07:27:19.573Z,101932.58
2019-02-16T07:28:21.782Z,101929.59
2019-02-16T07:29:24.000Z,101926.06
2019-02-16T07:30:26.212Z,101919.94
2019-02-16T07:31:28.436Z,101927.74
2019-02-16T07:32:30.702Z,101930.72
2019-02-16T07:33:32.895Z,101923.66
2019-02-16T07:34:35.112Z,101928.67
2019-02-16T07:35:37.310Z,101921.61
2019-02-16T07:36:39.519Z,101922.36
2019-02-16T07:37:41.780Z,101929.80
2019-02-16T07:38:43.988Z,101933.70
2019-02-16T07:39:46.227Z,101940.58
2019-02-16T07:40:48.423Z,101944.66
2019-02-16T07:41:50.637Z,101944.48
2019-02-16T07:42:54.530Z,101939.65
2019-02-16T07:44:16.562Z,101933.14
2019-02-16T07:45:25.382Z,101937.59
2019-02-16T07:46:36.546Z,101939.27
2019-02-16T07:48:00.661Z,101948.75
2019-02-16T07:49:16.347Z,101944.30
2019-02-16T07:50:24.603Z,101938.34
2019-02-16T07:51:42.175Z,101936.67
2019-02-16T07:53:03.321Z,101940.02
2019-02-16T07:54:20.343Z,101944.30
2019-02-16T07:55:44.458Z,101939.09
2019-02-16T07:56:51.426Z,101937.42
2019-02-16T07:58:12.572Z,101928.86
2019-02-16T07:59:33.744Z,101931.66
2019-02-16T08:00:53.603Z,101939.09
2019-02-16T08:02:17.828Z,101933.52
2019-02-16T08:03:37.697Z,101933.89
2019-02-16T08:04:58.864Z,101931.66
2019-02-16T08:06:11.396Z,101930.91
2019-02-16T08:07:42.887Z,101925.34
2019-02-16T08:08:52.574Z,101922.73
2019-02-16T08:10:09.101Z,101930.55
2019-02-16T08:11:23.736Z,101937.97
2019-02-16T08:12:32.322Z,101939.27
2019-02-16T08:13:59.744Z,101932.22
2019-02-16T08:15:23.704Z,101940.58
2019-02-16T08:16:31.046Z,101946.70
2019-02-16T08:17:55.345Z,101940.20
2019-02-16T08:19:17.579Z,101927.19
2019-02-16T08:20:26.566Z,101942.05
2019-02-16T08:21:53.818Z,101948.56
2019-02-16T08:23:21.308Z,101941.68
2019-02-16T08:24:49.624Z,101932.95
2019-02-16T08:26:22.880Z,101930.90
2019-02-16T08:27:44.034Z,101927.92
2019-02-16T08:29:14.320Z,101921.06
2019-02-16T08:30:35.483Z,101927.92
2019-02-16T08:31:47.752Z,101922.70
2019-02-16T08:32:56.459Z,101927.73
2019-02-16T08:34:26.578Z,101930.86
2019-02-16T08:35:42.868Z,101928.44
2019-02-16T08:37:16.360Z,101929.19
2019-02-16T08:38:33.257Z,101927.11
2019-02-16T08:40:00.561Z,101929.70
2019-02-16T08:41:20.609Z,101938.79
2019-02-16T08:42:52.670Z,101927.66
2019-02-16T08:44:02.626Z,101934.72
2019-02-16T08:45:20.475Z,101937.12
2019-02-16T08:46:32.895Z,101941.21
2019-02-16T08:48:00.092Z,101934.33
2019-02-16T08:49:24.313Z,101940.08
2019-02-16T08:50:54.360Z,101928.36
2019-02-16T08:52:08.751Z,101922.61
2019-02-16T08:55:17.663Z,101922.98
2019-02-16T08:56:32.089Z,101931.17
2019-02-16T08:57:51.924Z,101936.38
2019-02-16T08:59:22.482Z,101930.61
2019-02-16T09:00:43.630Z,101929.69
2019-02-16T09:02:07.844Z,101921.70
2019-02-16T09:03:41.108Z,101920.77
2019-02-16T09:04:55.210Z,101925.05
2019-02-16T09:06:28.466Z,101933.20
2019-02-16T09:07:49.720Z,101935.26
2019-02-16T09:09:11.146Z,101935.08
2019-02-16T09:10:20.743Z,101941.59
2019-02-16T09:11:40.844Z,101949.41
2019-02-16T09:13:02.049Z,101943.64
2019-02-16T09:14:10.923Z,101939.19
2019-02-16T09:15:34.947Z,101939.01
2019-02-16T09:16:46.481Z,101939.94
2019-02-16T09:18:06.500Z,101939.94
2019-02-16T09:19:27.651Z,101934.00
2019-02-16T09:20:58.199Z,101932.32
2019-02-16T09:22:34.773Z,101927.48
2019-02-16T09:23:59.209Z,101926.19
2019-02-16T09:25:05.597Z,101929.55
2019-02-16T09:26:14.836Z,101937.73
2019-02-16T09:27:51.052Z,101928.61
2019-02-16T09:29:11.292Z,101928.61
2019-02-16T09:30:24.161Z,101926.39
2019-02-16T09:31:48.351Z,101915.05
2019-02-16T09:33:24.931Z,101918.02
2019-02-16T09:34:44.281Z,101918.40
2019-02-16T09:35:52.050Z,101921.72
2019-02-16T09:37:12.531Z,101920.08
2019-02-16T09:38:35.058Z,101919.11
2019-02-16T09:40:08.414Z,101915.95
2019-02-16T09:41:29.567Z,101906.84
2019-02-16T09:42:56.779Z,101898.31
2019-02-16T09:44:21.166Z,101896.63
2019-02-16T09:45:41.394Z,101905.74
2019-02-16T09:47:02.287Z,101902.59
2019-02-16T09:48:16.576Z,101895.70
2019-02-16T09:49:49.839Z,101899.06
2019-02-16T09:51:00.245Z,101898.31
2019-02-16T09:52:15.915Z,101898.13
2019-02-16T09:53:31.701Z,101900.36
2019-02-16T09:54:55.632Z,101896.83
2019-02-16T09:56:20.780Z,101887.72
2019-02-16T09:57:43.574Z,101884.56
2019-02-16T09:59:07.780Z,101888.47
2019-02-16T10:00:27.580Z,101887.17
2019-02-16T10:01:48.782Z,101885.48
2019-02-16T10:03:30.580Z,101891.83
2019-02-16T10:04:44.554Z,101887.55
2019-02-16T10:06:04.167Z,101892.39
2019-02-16T10:07:43.787Z,101892.39
2019-02-16T10:09:03.454Z,101892.57
2019-02-16T10:10:19.593Z,101891.64
2019-02-16T10:11:23.805Z,101887.73
2019-02-16T10:12:44.993Z,101889.42
2019-02-16T10:14:10.216Z,101885.89
2019-02-16T10:15:30.224Z,101878.83
2019-02-16T10:16:51.368Z,101874.37
2019-02-16T10:18:15.692Z,101871.39
2019-02-16T10:19:33.434Z,101876.23
2019-02-16T10:21:03.852Z,101881.80
2019-02-16T10:22:25.003Z,101885.71
2019-02-16T10:23:46.192Z,101886.27
2019-02-16T10:25:06.217Z,101886.64
2019-02-16T10:26:33.410Z,101887.56
2019-02-16T10:28:06.685Z,101885.34
2019-02-16T10:29:33.891Z,101884.03
2019-02-16T10:30:42.989Z,101888.31
2019-02-16T10:31:50.614Z,101885.16
2019-02-16T10:33:11.765Z,101884.03
2019-02-16T10:34:24.619Z,101878.66
2019-02-16T10:35:51.035Z,101878.28
2019-02-16T10:37:18.024Z,101879.58
2019-02-16T10:38:29.440Z,101869.88
2019-02-16T10:39:49.384Z,101873.78
2019-02-16T10:41:25.603Z,101884.78
2019-02-16T10:42:52.793Z,101880.67
2019-02-16T10:44:12.673Z,101882.34
2019-02-16T10:45:36.852Z,101880.12
2019-02-16T10:46:51.290Z,101881.42
2019-02-16T10:48:12.462Z,101881.97
2019-02-16T10:49:36.621Z,101878.06
2019-02-16T10:50:46.225Z,101889.22
2019-02-16T10:52:10.444Z,101883.84
2019-02-16T10:53:34.424Z,101880.87
2019-02-16T10:55:07.767Z,101887.00
2019-02-16T10:56:38.698Z,101888.13
2019-02-16T10:57:48.423Z,101891.09
2019-02-16T11:00:48.324Z,101889.97
2019-02-16T11:02:24.900Z,101884.77
2019-02-16T11:03:34.517Z,101879.19
2019-02-16T11:05:01.892Z,101883.84
2019-02-16T11:06:11.232Z,101875.66
2019-02-16T11:07:27.037Z,101876.59
2019-02-16T11:08:35.962Z,101878.64
2019-02-16T11:09:52.746Z,101868.98
2019-02-16T11:11:19.999Z,101869.53
2019-02-16T11:12:33.309Z,101868.60
2019-02-16T11:14:00.620Z,101871.20
2019-02-16T11:15:20.685Z,101867.67
2019-02-16T11:18:20.882Z,101864.33
2019-02-16T11:19:43.619Z,101873.06
2019-02-16T11:21:22.900Z,101872.69
2019-02-16T11:22:44.160Z,101868.78
2019-02-16T11:24:14.500Z,101867.48
2019-02-16T11:25:35.658Z,101867.10
2019-02-16T11:26:56.827Z,101864.88
2019-02-16T11:28:17.946Z,101864.50
2019-02-16T11:29:41.288Z,101860.42
2019-02-16T11:31:02.109Z,101859.67
2019-02-16T11:32:23.903Z,101867.48
2019-02-16T11:33:53.940Z,101867.85
2019-02-16T11:35:13.881Z,101859.49
2019-02-16T11:36:26.040Z,101863.58
2019-02-16T11:37:56.509Z,101860.97
2019-02-16T11:39:26.944Z,101868.41
2019-02-16T11:41:00.163Z,101864.13
2019-02-16T11:42:09.433Z,101856.31
2019-02-16T11:43:35.399Z,101871.77
2019-02-16T11:44:58.470Z,101866.73
2019-02-16T11:46:13.530Z,101876.39
2019-02-16T11:49:25.647Z,101874.75
2019-02-16T11:50:44.688Z,101876.05
2019-02-16T11:51:54.903Z,101870.63
2019-02-16T11:53:31.253Z,101866.35
2019-02-16T11:54:55.430Z,101873.78
2019-02-16T11:56:13.547Z,101873.78
2019-02-16T11:57:27.492Z,101870.84
2019-02-16T11:58:40.412Z,101866.35
2019-02-16T12:00:01.573Z,101865.27
2019-02-16T12:01:13.819Z,101866.19
2019-02-16T12:02:26.546Z,101866.56
2019-02-16T12:03:47.710Z,101867.11
2019-02-16T12:04:57.882Z,101865.06
2019-02-16T12:06:14.075Z,101863.73
2019-02-16T12:07:47.068Z,101864.84
2019-02-16T12:08:56.351Z,101854.03
2019-02-16T12:10:35.736Z,101851.44
2019-02-16T12:11:56.883Z,101852.54
2019-02-16T12:13:36.482Z,101854.74
2019-02-16T12:15:09.651Z,101854.92
2019-02-16T12:16:29.722Z,101850.84
2019-02-16T12:17:59.839Z,101851.58
2019-02-16T12:19:19.674Z,101853.98
2019-02-16T12:20:43.811Z,101852.09
2019-02-16T12:21:56.122Z,101853.02
2019-02-16T12:23:08.119Z,101851.89
2019-02-16T12:24:38.459Z,101853.38
2019-02-16T12:26:01.062Z,101856.35
2019-02-16T12:27:25.053Z,101850.77
2019-02-16T12:28:53.746Z,101852.99
2019-02-16T12:30:12.248Z,101853.92
2019-02-16T12:31:27.039Z,101852.62
2019-02-16T12:32:46.844Z,101846.48
2019-02-16T12:33:59.695Z,101851.69
2019-02-16T12:35:29.983Z,101858.41
2019-02-16T12:36:41.526Z,101857.45
2019-02-16T12:38:17.958Z,101865.27
2019-02-16T12:39:32.908Z,101861.73
2019-02-16T12:40:43.597Z,101866.94
2019-02-16T12:42:07.484Z,101868.99
2019-02-16T12:43:29.365Z,101865.47
2019-02-16T12:44:53.307Z,101868.99
2019-02-16T12:46:04.783Z,101872.73
2019-02-16T12:47:35.150Z,101874.03
2019-02-16T12:48:56.291Z,101875.33
2019-02-16T12:50:05.765Z,101882.77
2019-02-16T12:51:45.107Z,101887.80
2019-02-16T12:53:05.162Z,101882.22
2019-02-16T12:54:41.413Z,101884.27
2019-02-16T12:55:57.529Z,101880.74
2019-02-16T12:57:07.123Z,101881.49
2019-02-16T12:58:28.274Z,101878.89
2019-02-16T12:59:48.040Z,101888.55
2019-02-16T13:01:04.386Z,101882.62
2019-02-16T13:02:34.374Z,101883.55
2019-02-16T13:03:46.476Z,101891.36
2019-02-16T13:04:57.040Z,101888.38
2019-02-16T13:06:21.075Z,101884.30
2019-02-16T13:07:29.136Z,101884.30
2019-02-16T13:08:39.970Z,101891.19
2019-02-16T13:10:01.150Z,101881.52
2019-02-16T13:11:29.665Z,101885.05
2019-02-16T13:12:47.355Z,101879.29
2019-02-16T13:14:17.619Z,101881.72
2019-02-16T13:15:38.763Z,101885.25
2019-02-16T13:17:00.711Z,101885.25
2019-02-16T13:18:27.440Z,101883.19